関西国際空港の過去48時間の天気

関西国際空港 (Kansai intl)

現在時刻: 10/16 15:49 JST (10/16 06:49 UTC) 以下の時間は現地時間です。

過去48時間のMETAR気象情報
時間 風向 風速(m/s) 視程 気温(℃) 湿度(%) 気圧(hPa) 天気現象
16 15:30 北東 3 10km以上 21 60 1011
16 15:00 北北東 4 10km以上 21 60 1011
16 14:30 北東 3 10km以上 22 60 1011
16 14:00 北北東 4 10km以上 22 65 1011
16 13:30 北北東 4 10km以上 21 64 1012
16 13:00 北北東 4 10km以上 21 64 1012
16 12:30 北東 4 10km以上 21 64 1013
16 12:00 東北東 4 10km以上 21 64 1013
16 11:30 北東 4 10km以上 21 69 1013
16 11:00 北東 4 10km以上 21 69 1013
16 10:30 北東 5 10km以上 20 73 1014
16 10:00 北東 5 10km以上 20 73 1014
16 09:30 東北東 5 10km以上 19 73 1015
16 09:00 東北東 5 10km以上 19 78 1015
16 08:30 東北東 5 10km以上 19 78 1015
16 08:00 東北東 6 10km以上 18 83 1015
16 07:30 東北東 6 10km以上 18 83 1015
16 07:00 東北東 5 10km以上 18 83 1015
16 06:30 東北東 5 10km以上 17 88 1015
16 06:00 東北東 4 10km以上 17 83 1015
16 05:30 東北東 5 10km以上 18 83 1015
16 05:00 東北東 5 10km以上 18 83 1015
16 04:30 東北東 4 10km以上 18 83 1016
16 04:00 東北東 4 10km以上 18 83 1015
16 03:30 東北東 4 10km以上 18 83 1015
16 03:00 4 10km以上 18 83 1016
16 02:30 東北東 4 10km以上 17 88 1016
16 02:00 3 10km以上 18 83 1016
16 01:30 東南東 4 10km以上 18 83 1016
16 01:00 4 10km以上 18 83 1016
16 00:30 東北東 4 10km以上 17 83 1016
16 00:00 3 10km以上 18 77 1016
15 23:30 南南東 2 10km以上 18 77 1016
15 23:00 南東 2 10km以上 19 78 1016
15 22:30 南南東 3 10km以上 19 78 1016
15 22:00 南東 3 10km以上 19 83 1016
15 21:30 南東 3 10km以上 19 83 1017
15 21:00 南東 3 10km以上 19 78 1017
15 20:30 南東 3 10km以上 19 73 1017
15 20:00 南南東 2 10km以上 20 73 1016
15 19:30 不定 2 10km以上 20 73 1016
15 19:00 不定 1 10km以上 20 68 1016
15 18:30 不定 1 10km以上 21 69 1016
15 18:00 不定 2 10km以上 21 56 1015
15 17:30 南南西 2 10km以上 21 60 1015
15 17:00 南南西 2 10km以上 21 60 1015
15 16:30 南西 2 10km以上 21 60 1015
15 16:00 西 2 10km以上 22 60 1016
15 15:30 西 1 10km以上 22 57 1016
15 15:00 不定 1 10km以上 21 56 1016
15 14:30 西 2 10km以上 21 60 1016
15 14:00 西北西 2 10km以上 22 60 1016
15 13:30 北西 3 10km以上 21 64 1016
15 13:00 北北西 2 10km以上 22 60 1016
15 12:30 2 10km以上 21 69 1017
15 12:00 北北東 2 10km以上 20 73 1017
15 11:30 北東 3 10km以上 21 69 1017
15 11:00 北北東 3 10km以上 20 73 1018
15 10:30 北北東 3 10km以上 20 73 1018
15 10:00 4 10km以上 20 68 1018
15 09:30 4 10km以上 20 68 1018
15 09:00 東北東 3 10km以上 19 78 1018
15 08:30 4 10km以上 19 78 1018
15 08:00 3 10km以上 19 73 1018
15 07:30 東南東 3 10km以上 19 78 1018
15 07:00 東南東 4 10km以上 19 78 1019
15 06:30 2 10km以上 19 78 1018
15 06:00 東北東 3 10km以上 19 78 1019
15 05:30 北東 3 10km以上 19 78 1019
15 05:00 北北東 3 10km以上 19 73 1019
15 04:30 東北東 2 10km以上 19 73 1019
15 04:00 北東 3 10km以上 19 73 1018
15 03:30 3 10km以上 19 78 1018
15 03:00 4 10km以上 19 78 1018
15 02:30 東北東 4 10km以上 19 78 1019
15 02:00 3 10km以上 19 78 1019
15 01:30 4 10km以上 19 78 1019
15 01:00 4 10km以上 20 73 1019
15 00:30 5 10km以上 20 73 1019
15 00:00 北東 5 10km以上 19 73 1019
14 23:30 北東 3 10km以上 20 73 1019
14 23:00 東北東 2 10km以上 20 73 1019
14 22:30 北東 3 10km以上 20 78 1019
14 22:00 北北東 3 10km以上 20 78 1019
14 21:30 北北西 2 10km以上 20 73 1019
14 21:00 西北西 2 10km以上 20 73 1020
14 20:30 北西 2 10km以上 20 73 1020
14 20:00 西北西 2 10km以上 20 73 1020
14 19:30 北西 2 10km以上 21 56 1019
14 19:00 北西 2 10km以上 21 56 1019
14 18:30 北西 2 10km以上 21 56 1019
14 18:00 西北西 2 10km以上 21 56 1019
14 17:30 西北西 3 10km以上 21 53 1019
14 17:00 西 3 10km以上 21 56 1019
14 16:30 西 3 10km以上 22 57 1019
14 16:00 西北西 2 10km以上 22 53 1019
RJBB 160630Z 04006KT 9999 FEW030 BKN120 BKN/// 21/13 Q1011 NOSIG
RJBB 160600Z 02007KT 9999 FEW030 BKN120 BKN/// 21/13 Q1011 NOSIG
RJBB 160530Z 04006KT 9999 FEW030 SCT120 BKN/// 22/14 Q1011 NOSIG
RJBB 160500Z 03007KT 9999 FEW025 SCT130 BKN/// 22/15 Q1011 NOSIG
RJBB 160430Z 03007KT 9999 FEW025 SCT150 BKN/// 21/14 Q1012 NOSIG
RJBB 160400Z 03008KT 9999 FEW025 SCT150 BKN/// 21/14 Q1012 NOSIG
RJBB 160330Z 05007KT 9999 FEW025 BKN150 BKN/// 21/14 Q1013 NOSIG
RJBB 160300Z 06007KT 030V100 9999 FEW025 SCT150 BKN/// 21/14 Q1013 NOSIG
RJBB 160230Z 05008KT 9999 FEW030 SCT150 BKN/// 21/15 Q1013 NOSIG
RJBB 160200Z 04008KT 9999 FEW030 BKN/// 21/15 Q1013 NOSIG
RJBB 160130Z 05009KT 9999 FEW030 BKN/// 20/15 Q1014 NOSIG
RJBB 160100Z 05010KT 9999 FEW025 BKN/// 20/15 Q1014 NOSIG
RJBB 160030Z 06009KT 9999 FEW025 SCT150 BKN/// 19/14 Q1015 NOSIG
RJBB 160000Z 07010KT 9999 FEW025 SCT180 BKN/// 19/15 Q1015 NOSIG
RJBB 152330Z 06010KT 9999 FEW025 SCT180 BKN/// 19/15 Q1015 NOSIG
RJBB 152300Z 06012KT 9999 FEW025 SCT160 BKN/// 18/15 Q1015 NOSIG
RJBB 152230Z 06011KT 9999 FEW025 SCT160 BKN/// 18/15 Q1015 NOSIG
RJBB 152200Z 06009KT 9999 FEW025 SCT080 BKN/// 18/15 Q1015 NOSIG
RJBB 152130Z 06009KT 9999 FEW025 SCT080 BKN/// 17/15 Q1015 NOSIG
RJBB 152100Z 06008KT 9999 FEW025 SCT080 BKN/// 17/14 Q1015 NOSIG
RJBB 152030Z AUTO 07009KT 9999 NSC 18/15 Q1015 NOSIG
RJBB 152000Z AUTO 07009KT 9999 NSC 18/15 Q1015 NOSIG
RJBB 151930Z AUTO 07008KT 9999 NSC 18/15 Q1016 NOSIG
RJBB 151900Z AUTO 07008KT 9999 NSC 18/15 Q1015 NOSIG
RJBB 151830Z AUTO 06008KT 9999 NSC 18/15 Q1015 NOSIG
RJBB 151800Z AUTO 08007KT 9999 NCD 18/15 Q1016 NOSIG
RJBB 151730Z AUTO 07007KT 9999 NCD 17/15 Q1016 NOSIG
RJBB 151700Z AUTO 09006KT 9999 NCD 18/15 Q1016 NOSIG
RJBB 151630Z AUTO 11007KT 9999 NCD 18/15 Q1016 NOSIG
RJBB 151600Z AUTO 09007KT 9999 NCD 18/15 Q1016 NOSIG
RJBB 151530Z AUTO 07007KT 9999 FEW025 17/14 Q1016 NOSIG
RJBB 151500Z AUTO 08005KT 9999 FEW023 SCT025 BKN028 18/14 Q1016 NOSIG
RJBB 151430Z AUTO 15003KT 9999 NCD 18/14 Q1016 BECMG 06008KT
RJBB 151400Z AUTO 14003KT 9999 NCD 19/15 Q1016 BECMG 06008KT
RJBB 151330Z 15005KT 090V240 9999 FEW025 BKN/// 19/15 Q1016 BECMG 06008KT
RJBB 151300Z 14005KT 9999 FEW025 BKN/// 19/16 Q1016 BECMG 06008KT
RJBB 151230Z 14005KT 100V160 9999 FEW025 BKN/// 19/16 Q1017 BECMG TL1330 03010KT
RJBB 151200Z 13005KT 9999 FEW025 BKN/// 19/15 Q1017 BECMG TL1330 03010KT
RJBB 151130Z 14005KT 9999 FEW025 BKN/// 19/14 Q1017 BECMG FM1200 03012KT
RJBB 151100Z 16004KT 9999 FEW025 BKN/// 20/15 Q1016 BECMG FM1200 03012KT
RJBB 151030Z VRB04KT 9999 FEW025 BKN/// 20/15 Q1016 NOSIG
RJBB 151000Z VRB02KT 9999 FEW025 BKN/// 20/14 Q1016 NOSIG
RJBB 150930Z VRB02KT 9999 FEW025 BKN/// 21/15 Q1016 NOSIG
RJBB 150900Z VRB04KT 9999 FEW025 BKN/// 21/12 Q1015 NOSIG
RJBB 150830Z 20003KT 9999 FEW025 BKN/// 21/13 Q1015 NOSIG
RJBB 150800Z 20003KT 160V230 9999 FEW025 BKN/// 21/13 Q1015 NOSIG
RJBB 150730Z 22003KT 190V250 9999 FEW025 BKN/// 21/13 Q1015 NOSIG
RJBB 150700Z 26003KT 210V290 9999 FEW025 BKN/// 22/14 Q1016 NOSIG
RJBB 150630Z 27002KT 9999 FEW025 BKN/// 22/13 Q1016 NOSIG
RJBB 150600Z VRB02KT 9999 FEW025 BKN/// 21/12 Q1016 NOSIG
RJBB 150530Z 28003KT 240V320 9999 FEW025 BKN/// 21/13 Q1016 NOSIG
RJBB 150500Z 29003KT 240V010 9999 FEW025 BKN/// 22/14 Q1016 NOSIG
RJBB 150430Z 31005KT 290V350 9999 FEW025 BKN/// 21/14 Q1016 NOSIG
RJBB 150400Z 33004KT 300V010 9999 FEW025 BKN/// 22/14 Q1016 BECMG 30005KT
RJBB 150330Z 01004KT 330V040 9999 FEW025 BKN/// 21/15 Q1017 BECMG 30005KT
RJBB 150300Z 02004KT 9999 FEW025 BKN/// 20/15 Q1017 BECMG 30005KT
RJBB 150230Z 05005KT 030V100 9999 FEW025 BKN/// 21/15 Q1017 NOSIG
RJBB 150200Z 02005KT 9999 FEW025 BKN/// 20/15 Q1018 NOSIG
RJBB 150130Z 02006KT 9999 FEW030 SCT160 BKN/// 20/15 Q1018 NOSIG
RJBB 150100Z 36007KT 9999 FEW030 BKN140 20/14 Q1018 NOSIG
RJBB 150030Z 36007KT 320V040 9999 FEW030 SCT100 BKN140 20/14 Q1018 NOSIG
RJBB 150000Z 06005KT 360V110 9999 FEW030 BKN100 BKN140 19/15 Q1018 NOSIG
RJBB 142330Z 08007KT 9999 FEW030 BKN100 BKN140 19/15 Q1018 NOSIG
RJBB 142300Z 10005KT 9999 FEW030 BKN100 BKN140 19/14 Q1018 NOSIG
RJBB 142230Z 11006KT 9999 FEW030 BKN100 BKN140 19/15 Q1018 NOSIG
RJBB 142200Z 12007KT 9999 FEW030 SCT100 BKN140 19/15 Q1019 NOSIG
RJBB 142130Z 09004KT 9999 FEW030 SCT060 BKN140 19/15 Q1018 NOSIG
RJBB 142100Z 07005KT 9999 FEW030 SCT050 BKN140 19/15 Q1019 NOSIG
RJBB 142030Z AUTO 04006KT 9999 SCT050 BKN060 BKN120 19/15 Q1019 NOSIG
RJBB 142000Z AUTO 02006KT 9999 BKN050 OVC130 19/14 Q1019 NOSIG
RJBB 141930Z AUTO 07004KT 9999 BKN050 BKN060 OVC140 19/14 Q1019 NOSIG
RJBB 141900Z AUTO 05005KT 9999 BKN050 OVC070 19/14 Q1018 NOSIG
RJBB 141830Z AUTO 08006KT 9999 BKN050 BKN060 OVC130 19/15 Q1018 NOSIG
RJBB 141800Z AUTO 08007KT 9999 BKN050 BKN060 OVC130 19/15 Q1018 NOSIG
RJBB 141730Z AUTO 06007KT 9999 FEW050 SCT130 BKN140 19/15 Q1019 NOSIG
RJBB 141700Z AUTO 08006KT 9999 NSC 19/15 Q1019 NOSIG
RJBB 141630Z AUTO 08007KT 9999 NSC 19/15 Q1019 NOSIG
RJBB 141600Z AUTO 08008KT 9999 FEW050 BKN150 20/15 Q1019 NOSIG
RJBB 141530Z AUTO 08009KT 9999 NSC 20/15 Q1019 NOSIG
RJBB 141500Z AUTO 05010KT 9999 NSC 19/14 Q1019 NOSIG
RJBB 141430Z AUTO 04005KT 010V090 9999 NSC 20/15 Q1019 NOSIG
RJBB 141400Z AUTO 07004KT 040V120 9999 FEW029 BKN160 BKN170 20/15 Q1019 NOSIG
RJBB 141330Z 05006KT 020V090 9999 FEW030 SCT150 BKN/// 20/16 Q1019 NOSIG
RJBB 141300Z 03006KT 340V070 9999 FEW030 SCT180 BKN/// 20/16 Q1019 NOSIG
RJBB 141230Z 34003KT 310V050 9999 FEW030 SCT180 BKN/// 20/15 Q1019 NOSIG
RJBB 141200Z 29003KT 250V330 9999 FEW030 BKN/// 20/15 Q1020 NOSIG
RJBB 141130Z 31003KT 240V360 9999 FEW030 BKN/// 20/15 Q1020 NOSIG
RJBB 141100Z 30004KT 9999 FEW030 BKN/// 20/15 Q1020 NOSIG
RJBB 141030Z 31003KT 250V010 9999 FEW030 BKN/// 21/12 Q1019 NOSIG
RJBB 141000Z 32003KT 290V360 9999 FEW030 BKN/// 21/12 Q1019 BECMG 36006KT
RJBB 140930Z 32003KT 230V350 9999 FEW030 BKN/// 21/12 Q1019 BECMG 36006KT
RJBB 140900Z 29004KT 250V330 9999 FEW025 BKN/// 21/12 Q1019 BECMG 36008KT
RJBB 140830Z 29005KT 9999 FEW025 BKN/// 21/11 Q1019 BECMG 36008KT
RJBB 140800Z 28005KT 250V310 9999 FEW025 BKN/// 21/12 Q1019 NOSIG
RJBB 140730Z 28005KT 9999 FEW025 BKN/// 22/13 Q1019 NOSIG
RJBB 140700Z 29004KT 230V320 9999 FEW025 BKN/// 22/12 Q1019 NOSIG